Aviation Digital Data Service (ADDS)

Output produced by TAFs form (2223 UTC 23 September 2014)
found at http://aviationweather.gov/adds/tafs/
 
KCNY 231739Z 2318/2418 VRB03KT P6SM SKC 
     FM232000 30005KT P6SM FEW110 
     FM240200 VRB03KT P6SM SKC 
     FM240800 00000KT P6SM SKC